Time;durP1;ratioP1;P1;durP2;ratioP2;P2;SDS_P1;SDS_P2;PMS_P1;PMS_P2;Temp;Humidity;BMP_temperature;BMP_pressure;BME280_temperature;BME280_humidity;BME280_pressure;Samples;Min_cycle;Max_cycle;Signal;HPM_P1;HPM_P2
2023/03/12 00:02:01;;;;;;;2.80;1.30;;;;;;;7.11;43.82;95780.94;4892820;29;20190;-73
2023/03/12 00:04:30;;;;;;;4.37;1.60;;;;;;;7.09;42.93;95779.38;4892751;29;20267;-72
2023/03/12 00:06:57;;;;;;;5.23;1.60;;;;;;;7.09;43.06;95785.31;4893080;29;20264;-73
2023/03/12 00:09:23;;;;;;;4.13;1.50;;;;;;;7.08;43.20;95799.13;4892267;29;20288;-73
2023/03/12 00:11:50;;;;;;;3.37;1.10;;;;;;;6.99;43.74;95773.00;4893066;29;20194;-73
2023/03/12 00:14:17;;;;;;;4.90;1.43;;;;;;;7.13;42.93;95781.69;4851365;29;1241109;-72
2023/03/12 00:16:44;;;;;;;4.53;1.47;;;;;;;7.12;43.47;95784.34;4893872;29;20258;-75
2023/03/12 00:19:12;;;;;;;4.13;1.50;;;;;;;7.10;43.17;95770.72;4893605;29;20213;-74
2023/03/12 00:21:39;;;;;;;3.97;1.53;;;;;;;6.94;43.00;95759.56;4893299;29;20197;-76
2023/03/12 00:24:07;;;;;;;4.23;1.97;;;;;;;6.75;43.75;95756.28;4893659;29;20199;-75
2023/03/12 00:26:34;;;;;;;6.07;1.60;;;;;;;6.88;43.55;95767.59;4892906;29;20256;-73
2023/03/12 00:29:01;;;;;;;7.10;1.50;;;;;;;6.91;43.65;95776.00;4893901;29;20197;-73
2023/03/12 00:31:34;;;;;;;2.27;1.20;;;;;;;6.92;44.19;95797.41;4893142;29;20239;-77
2023/03/12 00:34:01;;;;;;;4.83;1.43;;;;;;;6.96;44.09;95798.91;4893585;29;20273;-73
2023/03/12 00:36:30;;;;;;;2.17;1.37;;;;;;;6.96;42.63;95814.34;4893912;29;20639;-76
2023/03/12 00:38:59;;;;;;;4.77;1.63;;;;;;;6.98;42.27;95792.78;4893250;29;20198;-75
2023/03/12 00:41:26;;;;;;;6.00;2.10;;;;;;;6.93;43.72;95794.75;4892349;29;20711;-73
2023/03/12 00:43:53;;;;;;;7.00;1.60;;;;;;;6.93;43.28;95810.19;4892797;29;20209;-75
2023/03/12 00:46:21;;;;;;;4.67;1.47;;;;;;;6.89;42.31;95808.69;4893658;29;20241;-74
2023/03/12 00:48:48;;;;;;;6.73;1.60;;;;;;;6.87;42.65;95832.81;4892935;29;20743;-75
2023/03/12 00:51:15;;;;;;;3.23;1.17;;;;;;;6.77;43.43;95799.03;4892656;29;20199;-74
2023/03/12 00:53:42;;;;;;;3.40;1.37;;;;;;;6.72;43.77;95801.00;4893025;29;20214;-78
2023/03/12 00:56:09;;;;;;;3.90;1.30;;;;;;;6.82;43.23;95783.38;4893218;29;20295;-74
2023/03/12 00:58:36;;;;;;;3.23;1.50;;;;;;;6.87;42.34;95789.09;4893280;29;20282;-75
2023/03/12 01:01:04;;;;;;;3.67;1.40;;;;;;;6.86;42.50;95797.72;4891454;29;20206;-76
2023/03/12 01:03:31;;;;;;;3.10;1.20;;;;;;;6.85;42.01;95799.47;4893968;29;20665;-71
2023/03/12 01:05:58;;;;;;;4.77;1.60;;;;;;;6.85;41.93;95793.47;4892087;29;20736;-71
2023/03/12 01:08:25;;;;;;;4.73;1.20;;;;;;;6.84;41.91;95782.34;4891857;29;20272;-74
2023/03/12 01:10:53;;;;;;;2.27;1.30;;;;;;;6.89;41.95;95782.97;4891320;29;20195;-73
2023/03/12 01:13:20;;;;;;;1.40;1.20;;;;;;;6.64;40.86;95746.53;4892468;29;20228;-76
2023/03/12 01:15:47;;;;;;;5.93;1.47;;;;;;;6.95;40.47;95781.81;4891592;29;20213;-72
2023/03/12 01:18:14;;;;;;;5.90;1.60;;;;;;;6.95;39.68;95794.66;4890896;29;20219;-75
2023/03/12 01:20:41;;;;;;;6.10;1.47;;;;;;;6.75;40.30;95756.28;4891696;29;20210;-74
2023/03/12 01:23:08;;;;;;;3.77;1.13;;;;;;;6.99;39.22;95785.88;4892134;29;20229;-74
2023/03/12 01:25:36;;;;;;;1.57;1.10;;;;;;;7.05;39.58;95803.56;4891539;29;20255;-76
2023/03/12 01:28:05;;;;;;;3.03;0.87;;;;;;;7.10;38.13;95804.19;4892430;29;20591;-78
2023/03/12 01:30:31;;;;;;;1.93;1.10;;;;;;;7.16;38.51;95801.28;4893908;29;20288;-77
2023/03/12 01:32:58;;;;;;;5.17;1.30;;;;;;;7.16;37.70;95796.13;4912111;29;20255;-73
2023/03/12 01:35:25;;;;;;;6.43;1.90;;;;;;;7.19;38.50;95814.00;4910953;29;20234;-76
2023/03/12 01:37:54;;;;;;;3.87;1.10;;;;;;;7.15;38.69;95817.66;4894771;29;20210;-78
2023/03/12 01:40:24;;;;;;;2.77;1.57;;;;;;;7.09;38.09;95805.09;4910645;29;20289;-77
2023/03/12 01:42:56;;;;;;;2.90;1.20;;;;;;;7.19;38.84;95814.00;4911316;29;20198;-77
2023/03/12 01:46:01;;;;;;;4.33;1.40;;;;;;;7.16;37.93;95806.44;4893847;29;20238;-77
2023/03/12 01:48:35;;;;;;;2.43;1.00;;;;;;;7.08;39.35;95818.88;4893825;29;20218;-77
2023/03/12 01:51:03;;;;;;;1.97;1.10;;;;;;;7.02;38.90;95793.47;4871434;29;20207;-77
2023/03/12 01:53:31;;;;;;;5.40;1.50;;;;;;;6.97;38.75;95805.72;4875873;29;20243;-73
2023/03/12 01:55:59;;;;;;;10.77;1.33;;;;;;;6.97;39.11;95790.28;4892591;29;20670;-75
2023/03/12 01:58:31;;;;;;;2.03;1.20;;;;;;;6.80;39.17;95780.84;4875510;29;20233;-72
2023/03/12 02:00:59;;;;;;;4.83;1.30;;;;;;;6.89;39.26;95833.59;4875342;29;20677;-76
2023/03/12 02:03:28;;;;;;;2.93;1.40;;;;;;;6.82;38.79;95811.66;4875631;29;20205;-73
2023/03/12 02:06:01;;;;;;;3.37;1.30;;;;;;;6.85;38.59;95826.94;4874711;29;20207;-74
2023/03/12 02:08:28;;;;;;;2.40;1.10;;;;;;;6.76;39.31;95837.69;4875733;29;20230;-75
2023/03/12 02:10:55;;;;;;;1.07;0.97;;;;;;;6.76;40.38;95827.41;4891645;29;20750;-75
2023/03/12 02:13:22;;;;;;;2.37;1.03;;;;;;;6.77;39.41;95824.75;4890510;29;20242;-76
2023/03/12 02:15:49;;;;;;;6.53;2.07;;;;;;;6.78;39.09;95830.75;4890560;29;20288;-77
2023/03/12 02:18:18;;;;;;;1.60;1.10;;;;;;;6.62;39.45;95809.25;4890433;29;20645;-76
2023/03/12 02:21:13;;;;;;;3.37;1.27;;;;;;;6.61;39.82;95833.31;4890638;29;20205;-77
2023/03/12 02:23:46;;;;;;;2.47;1.63;;;;;;;6.60;39.14;95860.75;4858988;29;20209;-73
2023/03/12 02:26:16;;;;;;;4.47;1.40;;;;;;;6.53;41.09;95864.56;4875267;29;20233;-74
2023/03/12 02:28:44;;;;;;;6.23;1.27;;;;;;;6.46;40.21;95861.44;4891962;29;20185;-72
2023/03/12 02:31:21;;;;;;;5.03;1.30;;;;;;;6.46;40.98;95869.16;4891655;29;20205;-72
2023/03/12 02:33:48;;;;;;;2.17;1.70;;;;;;;6.42;41.56;95880.50;4891797;29;20253;-72
2023/03/12 02:36:15;;;;;;;3.80;1.30;;;;;;;6.37;41.16;95894.47;4891192;29;20200;-75
2023/03/12 02:38:48;;;;;;;4.27;1.40;;;;;;;6.39;41.51;95890.06;4890874;29;20212;-72
2023/03/12 02:41:37;;;;;;;3.70;1.70;;;;;;;6.33;41.05;95910.94;4874510;29;20691;-72
2023/03/12 02:44:17;;;;;;;3.50;1.50;;;;;;;6.33;41.58;95910.94;4891554;29;20233;-72
2023/03/12 02:46:50;;;;;;;2.70;1.67;;;;;;;6.28;41.44;95910.34;4891850;29;20239;-73
2023/03/12 02:49:19;;;;;;;3.60;1.50;;;;;;;6.23;42.69;95920.84;4874559;29;20201;-75
2023/03/12 02:51:47;;;;;;;4.93;1.50;;;;;;;6.08;43.33;95913.00;4875357;29;20667;-75
2023/03/12 02:54:16;;;;;;;2.87;1.60;;;;;;;6.07;43.30;95914.75;4874460;29;20761;-75
2023/03/12 02:56:44;;;;;;;3.40;1.43;;;;;;;6.20;42.32;95933.81;4890224;29;20190;-73
2023/03/12 02:59:13;;;;;;;2.17;1.70;;;;;;;6.11;43.10;95941.97;4890553;29;20214;-73
2023/03/12 03:01:42;;;;;;;7.00;1.80;;;;;;;6.11;43.14;95962.53;4874293;29;20216;-74
2023/03/12 03:04:10;;;;;;;5.77;1.80;;;;;;;6.11;42.64;95959.13;4875303;29;20200;-73
2023/03/12 03:06:41;;;;;;;6.63;1.93;;;;;;;6.11;42.28;95972.81;4890989;29;20236;-73
2023/03/12 03:09:09;;;;;;;2.23;1.60;;;;;;;5.79;42.92;95929.69;4874924;29;20248;-73
2023/03/12 03:11:36;;;;;;;3.17;1.50;;;;;;;6.06;43.43;95977.31;4889822;29;20261;-73
2023/03/12 03:14:05;;;;;;;4.50;1.50;;;;;;;6.03;43.24;95980.03;4861027;29;20272;-72
2023/03/12 03:16:33;;;;;;;4.67;1.97;;;;;;;5.95;43.93;95976.97;4893544;29;20858;-72
2023/03/12 03:19:00;;;;;;;3.80;1.77;;;;;;;5.89;44.07;95977.25;4893229;29;20205;-72
2023/03/12 03:21:28;;;;;;;6.53;2.00;;;;;;;5.84;44.74;95968.06;4894952;29;20828;-74
2023/03/12 03:23:54;;;;;;;3.77;1.77;;;;;;;5.88;44.18;95985.00;4894058;29;20208;-72
2023/03/12 03:26:22;;;;;;;6.30;2.10;;;;;;;5.79;44.42;95981.06;4878107;29;20932;-73
2023/03/12 03:28:50;;;;;;;2.60;1.80;;;;;;;5.62;45.25;95991.25;4877680;29;20200;-72
2023/03/12 03:31:18;;;;;;;3.43;1.73;;;;;;;5.61;45.12;96003.25;4893415;29;20193;-74
2023/03/12 03:33:46;;;;;;;3.93;1.90;;;;;;;5.61;45.75;96007.56;4893534;29;20651;-74
2023/03/12 03:36:13;;;;;;;4.20;1.50;;;;;;;5.60;44.84;96016.16;4894618;29;20291;-73
2023/03/12 03:38:49;;;;;;;2.90;1.83;;;;;;;5.59;45.85;96017.91;4878092;29;20218;-73
2023/03/12 03:41:19;;;;;;;5.70;2.03;;;;;;;5.63;44.85;96023.72;4876882;29;20209;-72
2023/03/12 03:43:46;;;;;;;6.07;2.00;;;;;;;5.67;44.76;96012.44;4877806;29;20687;-73
2023/03/12 03:46:16;;;;;;;3.33;1.67;;;;;;;5.66;45.73;96021.03;4877350;29;20697;-75
2023/03/12 03:48:49;;;;;;;4.30;2.20;;;;;;;5.69;45.25;96019.16;4877257;29;20208;-75
2023/03/12 03:51:17;;;;;;;6.10;1.50;;;;;;;5.68;44.93;96027.78;4894263;29;20196;-76
2023/03/12 03:53:48;;;;;;;9.33;4.03;;;;;;;5.66;45.12;96026.19;4877232;29;20256;-77
2023/03/12 03:56:16;;;;;;;3.93;1.83;;;;;;;5.54;45.88;96044.69;4893380;29;20196;-73
2023/03/12 03:58:46;;;;;;;2.17;1.60;;;;;;;5.49;46.17;96033.75;4877010;29;20194;-72
2023/03/12 04:01:14;;;;;;;3.17;1.93;;;;;;;5.47;46.38;96030.41;4892939;29;20200;-72
2023/03/12 04:03:43;;;;;;;3.37;1.80;;;;;;;5.39;46.92;96032.47;4877090;29;20203;-73
2023/03/12 04:06:11;;;;;;;2.27;1.70;;;;;;;5.32;47.09;96024.19;4876727;29;20839;-73
2023/03/12 04:08:39;;;;;;;6.13;1.90;;;;;;;5.25;48.24;96027.09;4877150;29;20204;-73
2023/03/12 04:11:19;;;;;;;4.57;2.40;;;;;;;5.18;48.09;96028.22;4892323;29;20200;-75
2023/03/12 04:13:47;;;;;;;3.97;1.80;;;;;;;5.14;48.44;96042.91;4877198;29;20723;-72
2023/03/12 04:16:17;;;;;;;3.30;1.93;;;;;;;5.21;47.80;96058.91;4892015;29;20201;-72
2023/03/12 04:18:45;;;;;;;2.23;1.87;;;;;;;5.22;48.21;96068.25;4876816;29;20192;-73
2023/03/12 04:21:13;;;;;;;3.37;2.03;;;;;;;5.23;47.76;96078.47;4877210;29;20231;-75
2023/03/12 04:23:41;;;;;;;5.40;2.17;;;;;;;5.26;48.06;96062.09;4876748;29;20210;-74
2023/03/12 04:26:10;;;;;;;4.50;2.00;;;;;;;5.16;48.53;96050.53;4891525;29;20267;-75
2023/03/12 04:28:38;;;;;;;4.13;2.00;;;;;;;5.12;49.33;96083.19;4876470;29;20211;-72
2023/03/12 04:31:07;;;;;;;3.97;2.20;;;;;;;5.08;48.71;96076.53;4893828;29;20204;-73
2023/03/12 04:33:41;;;;;;;7.63;2.83;;;;;;;5.05;49.25;96086.06;4877153;29;20196;-77
2023/03/12 04:36:10;;;;;;;8.03;3.30;;;;;;;5.12;48.77;96079.78;4877160;29;20214;-72
2023/03/12 04:38:39;;;;;;;5.87;1.90;;;;;;;5.05;49.41;96065.56;4876703;29;20209;-74
2023/03/12 04:41:11;;;;;;;5.53;2.00;;;;;;;4.97;48.84;96053.84;4891855;29;20212;-73
2023/03/12 04:43:43;;;;;;;3.37;1.60;;;;;;;4.94;49.03;96051.44;4892251;29;20285;-77
2023/03/12 04:46:11;;;;;;;4.07;1.70;;;;;;;5.03;49.43;96080.16;4893008;29;20207;-76
2023/03/12 04:48:41;;;;;;;5.67;2.07;;;;;;;5.00;49.19;96072.59;4892095;29;20204;-73
2023/03/12 04:51:08;;;;;;;4.43;2.03;;;;;;;4.99;49.66;96070.94;4875702;29;20290;-75
2023/03/12 04:53:35;;;;;;;6.17;2.50;;;;;;;4.99;49.71;96065.81;4877719;29;20660;-76
2023/03/12 04:56:02;;;;;;;4.33;2.20;;;;;;;4.91;50.19;96064.34;4876312;29;20838;-76
2023/03/12 04:58:31;;;;;;;4.30;2.27;;;;;;;4.69;49.92;96050.72;4885244;29;20212;-72
2023/03/12 05:00:58;;;;;;;3.47;1.83;;;;;;;4.95;49.75;96077.88;4874299;29;20203;-72
2023/03/12 05:03:25;;;;;;;3.00;1.97;;;;;;;5.12;48.64;96092.63;4891281;29;20257;-72
2023/03/12 05:05:52;;;;;;;4.17;1.63;;;;;;;5.11;49.67;96103.78;4884041;29;20251;-72
2023/03/12 05:08:20;;;;;;;2.90;1.90;;;;;;;5.17;49.32;96129.22;4891525;29;20699;-76
2023/03/12 05:10:47;;;;;;;5.33;2.73;;;;;;;5.29;49.47;96114.16;4906792;29;20203;-75
2023/03/12 05:13:18;;;;;;;3.03;2.03;;;;;;;5.30;49.48;96117.53;4891283;29;20240;-72
2023/03/12 05:15:47;;;;;;;3.50;2.03;;;;;;;5.27;49.96;96120.25;4892326;29;20207;-80
2023/03/12 05:18:14;;;;;;;3.23;2.17;;;;;;;5.32;49.42;96116.59;4907409;29;20824;-79
2023/03/12 05:20:42;;;;;;;3.73;2.17;;;;;;;5.33;49.37;96120.00;4892200;29;20209;-77
2023/03/12 05:23:09;;;;;;;4.10;2.23;;;;;;;5.27;49.48;96120.25;4892431;29;20221;-74
2023/03/12 05:25:40;;;;;;;5.17;2.13;;;;;;;5.32;48.80;96149.13;4886414;29;20219;-72
2023/03/12 05:28:08;;;;;;;6.00;2.07;;;;;;;5.28;49.40;96155.28;4879485;29;20236;-72
2023/03/12 05:30:38;;;;;;;3.37;2.30;;;;;;;5.33;49.45;96131.13;4857402;29;20201;-77
2023/03/12 05:33:05;;;;;;;5.10;2.00;;;;;;;5.42;48.35;96148.69;4872404;29;20200;-73
2023/03/12 05:35:32;;;;;;;3.83;2.47;;;;;;;5.49;49.00;96144.16;4884191;29;20710;-76
2023/03/12 05:37:59;;;;;;;6.60;1.87;;;;;;;5.64;48.64;96158.97;4893387;29;20268;-76
2023/03/12 05:40:27;;;;;;;2.33;1.93;;;;;;;5.60;48.42;96172.81;4911672;29;20291;-74
2023/03/12 05:42:54;;;;;;;4.37;2.20;;;;;;;5.38;47.59;96129.19;4910923;29;20282;-78
2023/03/12 05:45:24;;;;;;;2.67;2.03;;;;;;;5.64;47.73;96174.38;4894335;29;20215;-78
2023/03/12 05:47:54;;;;;;;5.40;2.00;;;;;;;5.64;48.35;96188.03;4894253;29;20237;-77
2023/03/12 05:50:21;;;;;;;2.70;1.90;;;;;;;5.67;47.23;96197.34;4910922;29;20315;-78
2023/03/12 05:52:48;;;;;;;2.40;1.87;;;;;;;5.67;47.15;96210.19;4911936;29;20209;-80
2023/03/12 05:55:15;;;;;;;3.90;2.23;;;;;;;5.67;47.30;96212.75;4910933;29;20279;-76
2023/03/12 05:57:42;;;;;;;2.17;1.97;;;;;;;5.69;47.43;96231.50;4911923;29;20677;-79
2023/03/12 06:00:12;;;;;;;3.40;1.93;;;;;;;5.79;46.67;96237.94;4893608;29;20204;-78
2023/03/12 06:02:43;;;;;;;3.17;2.07;;;;;;;5.69;46.11;96249.47;4894027;29;20189;-79
2023/03/12 06:05:11;;;;;;;2.73;1.67;;;;;;;5.81;45.32;96263.59;4909739;29;20192;-79
2023/03/12 06:07:39;;;;;;;2.73;1.73;;;;;;;5.84;45.12;96225.78;4894275;29;20607;-74
2023/03/12 06:10:06;;;;;;;3.03;1.70;;;;;;;5.73;45.19;96227.91;4906169;29;20254;-79
2023/03/12 06:12:33;;;;;;;2.00;1.50;;;;;;;5.58;45.21;96220.84;4878555;29;20246;-78
2023/03/12 06:15:00;;;;;;;3.17;2.17;;;;;;;5.64;45.37;96224.00;4891434;29;20284;-78
2023/03/12 06:17:30;;;;;;;3.07;1.70;;;;;;;5.76;44.56;96227.81;4882734;29;20258;-79
2023/03/12 06:19:57;;;;;;;4.30;2.10;;;;;;;5.86;45.20;96238.56;4873148;29;20236;-76
2023/03/12 06:22:25;;;;;;;3.13;2.00;;;;;;;5.92;45.34;96228.88;4856955;29;20197;-78
2023/03/12 06:24:52;;;;;;;1.87;1.60;;;;;;;6.01;44.49;96231.09;4887937;29;20210;-77
2023/03/12 06:27:19;;;;;;;1.80;1.60;;;;;;;6.18;43.94;96251.78;4873558;29;20282;-77
2023/03/12 06:29:46;;;;;;;3.30;1.77;;;;;;;6.23;44.13;96267.88;4893538;29;20197;-74
2023/03/12 06:32:14;;;;;;;2.47;1.50;;;;;;;6.07;43.49;96268.53;4898833;29;20206;-77
2023/03/12 06:34:41;;;;;;;1.50;1.30;;;;;;;6.03;44.21;96246.44;4910560;29;20287;-75
2023/03/12 06:37:08;;;;;;;2.37;1.73;;;;;;;6.08;43.99;96280.53;4910631;29;20641;-77
2023/03/12 06:39:35;;;;;;;2.73;1.50;;;;;;;6.22;43.71;96273.88;4910215;29;20707;-76
2023/03/12 06:42:02;;;;;;;2.03;1.57;;;;;;;6.29;44.15;96295.03;4910188;29;20283;-77
2023/03/12 06:44:29;;;;;;;2.20;1.97;;;;;;;6.40;43.60;96308.31;4891590;29;20293;-77
2023/03/12 06:46:56;;;;;;;2.20;1.67;;;;;;;6.22;43.61;96306.50;4896699;29;20286;-74
2023/03/12 06:49:23;;;;;;;3.33;2.00;;;;;;;6.03;43.69;96305.56;4891803;29;20617;-73
2023/03/12 06:51:50;;;;;;;5.77;2.20;;;;;;;5.90;44.01;96310.34;4897089;29;20202;-76
2023/03/12 06:54:17;;;;;;;2.23;1.83;;;;;;;5.98;43.83;96310.88;4895137;29;20207;-76
2023/03/12 06:56:44;;;;;;;2.30;1.70;;;;;;;6.03;43.86;96321.81;4895042;29;20212;-77
2023/03/12 06:59:11;;;;;;;4.00;2.87;;;;;;;5.97;44.30;96314.34;4877949;29;20208;-79
2023/03/12 07:01:38;;;;;;;5.20;2.20;;;;;;;5.81;44.52;96307.25;4894958;29;20206;-76
2023/03/12 07:04:05;;;;;;;2.47;1.70;;;;;;;5.90;45.29;96315.47;4894420;29;20326;-76
2023/03/12 07:06:32;;;;;;;4.30;2.13;;;;;;;5.83;45.17;96314.03;4895569;29;20650;-76
2023/03/12 07:09:00;;;;;;;5.13;1.80;;;;;;;5.87;43.93;96317.34;4895225;29;20241;-75
2023/03/12 07:11:27;;;;;;;2.13;1.90;;;;;;;6.00;43.46;96316.78;4895082;29;20295;-76
2023/03/12 07:13:54;;;;;;;2.43;2.00;;;;;;;5.88;44.05;96312.13;4894495;29;20658;-77
2023/03/12 07:16:21;;;;;;;3.57;1.70;;;;;;;5.86;43.87;96316.50;4894543;29;20621;-76
2023/03/12 07:18:48;;;;;;;2.13;1.83;;;;;;;5.89;44.04;96298.41;4894750;29;20211;-76
2023/03/12 07:21:22;;;;;;;2.53;1.90;;;;;;;5.68;44.08;96333.44;4894227;29;20213;-77
2023/03/12 07:23:50;;;;;;;2.00;1.90;;;;;;;5.41;45.16;96256.59;4895346;29;20204;-75
2023/03/12 07:26:18;;;;;;;3.30;1.57;;;;;;;5.77;45.54;96314.22;4894250;29;20212;-75
2023/03/12 07:28:45;;;;;;;1.73;1.63;;;;;;;5.82;45.36;96304.63;4877901;29;20239;-77
2023/03/12 07:31:12;;;;;;;2.30;1.87;;;;;;;5.84;44.51;96335.41;4876951;29;20672;-77
2023/03/12 07:33:39;;;;;;;3.47;1.73;;;;;;;5.80;44.47;96311.56;4894378;29;20678;-76
2023/03/12 07:36:06;;;;;;;2.87;2.17;;;;;;;5.88;45.33;96327.53;4890785;29;20212;-75
2023/03/12 07:38:34;;;;;;;2.93;2.00;;;;;;;5.94;45.29;96329.88;4888937;29;20264;-74
2023/03/12 07:41:00;;;;;;;3.00;2.17;;;;;;;5.94;44.36;96365.84;4894408;29;20201;-75
2023/03/12 07:43:27;;;;;;;2.80;2.33;;;;;;;5.82;44.44;96340.59;4895209;29;20210;-77
2023/03/12 07:45:54;;;;;;;5.33;2.07;;;;;;;5.79;45.60;96336.41;4895745;29;20206;-77
2023/03/12 07:48:22;;;;;;;6.00;2.90;;;;;;;6.24;44.60;96356.97;4893604;29;20255;-76
2023/03/12 07:50:49;;;;;;;5.37;3.37;;;;;;;6.24;44.20;96361.25;4893973;29;20206;-75
2023/03/12 07:53:17;;;;;;;2.47;2.00;;;;;;;6.31;43.17;96342.09;4883825;29;20232;-79
2023/03/12 07:55:45;;;;;;;2.80;2.33;;;;;;;6.58;44.09;96388.13;4911459;29;20597;-77
2023/03/12 07:58:14;;;;;;;2.77;1.93;;;;;;;6.44;43.24;96394.72;4913175;29;20672;-75
2023/03/12 08:00:41;;;;;;;2.10;1.90;;;;;;;6.30;43.36;96363.56;4912285;29;20205;-75
2023/03/12 08:03:08;;;;;;;2.87;2.20;;;;;;;6.54;44.43;96368.56;4915200;29;20216;-83
2023/03/12 08:05:35;;;;;;;2.37;1.90;;;;;;;6.42;43.72;96366.50;4919631;29;20277;-84
2023/03/12 08:08:03;;;;;;;3.53;2.00;;;;;;;6.52;44.15;96362.66;4916275;29;20305;-75
2023/03/12 08:10:29;;;;;;;2.73;2.10;;;;;;;6.54;43.19;96367.72;4915051;29;20197;-79
2023/03/12 08:12:57;;;;;;;3.17;1.60;;;;;;;6.67;42.75;96383.50;4900185;29;20257;-76
2023/03/12 08:15:24;;;;;;;4.30;2.50;;;;;;;6.78;43.69;96383.91;4895582;29;20199;-74
2023/03/12 08:17:51;;;;;;;2.83;2.00;;;;;;;6.77;43.08;96366.78;4894758;29;20205;-81
2023/03/12 08:20:18;;;;;;;2.30;2.10;;;;;;;6.86;42.72;96387.00;4893591;29;20202;-77
2023/03/12 08:22:45;;;;;;;2.13;1.83;;;;;;;6.79;43.26;96390.72;4894156;29;20197;-78
2023/03/12 08:25:12;;;;;;;1.93;1.73;;;;;;;7.02;42.98;96385.44;4893771;29;20194;-77
2023/03/12 08:27:40;;;;;;;2.83;1.80;;;;;;;7.16;41.83;96396.84;4893566;29;20218;-73
2023/03/12 08:30:07;;;;;;;1.97;1.80;;;;;;;7.19;41.39;96404.41;4881924;29;20202;-80
2023/03/12 08:32:35;;;;;;;3.30;1.57;;;;;;;7.26;41.84;96399.84;4892120;29;20570;-77
2023/03/12 08:35:04;;;;;;;3.40;2.03;;;;;;;7.14;42.20;96410.66;4897262;29;20292;-74
2023/03/12 08:37:31;;;;;;;3.77;1.60;;;;;;;7.17;41.80;96410.56;4912823;29;20287;-75
2023/03/12 08:39:59;;;;;;;2.40;1.70;;;;;;;7.13;42.13;96429.59;4912056;29;20300;-76
2023/03/12 08:42:26;;;;;;;2.13;1.90;;;;;;;6.79;42.04;96416.44;4912296;29;20297;-77
2023/03/12 08:44:53;;;;;;;2.10;1.90;;;;;;;6.89;42.07;96402.28;4912501;29;20291;-76
2023/03/12 08:47:19;;;;;;;1.77;1.57;;;;;;;7.06;41.97;96402.44;4911787;29;20287;-75
2023/03/12 08:49:46;;;;;;;1.97;1.53;;;;;;;7.17;42.73;96410.56;4912518;29;20660;-75
2023/03/12 08:52:13;;;;;;;9.87;1.87;;;;;;;7.11;41.55;96364.47;4911390;29;20206;-79
2023/03/12 08:54:40;;;;;;;3.83;1.77;;;;;;;7.33;42.14;96391.81;4906949;29;20203;-75
2023/03/12 08:57:07;;;;;;;2.57;2.37;;;;;;;7.60;42.60;96400.06;4894916;29;20199;-79
2023/03/12 08:59:34;;;;;;;4.30;2.03;;;;;;;7.50;42.07;96428.88;4912059;29;20200;-75
2023/03/12 09:02:01;;;;;;;2.43;1.90;;;;;;;7.34;42.70;96400.34;4893233;29;21195;-78
2023/03/12 09:04:28;;;;;;;3.07;1.83;;;;;;;7.14;42.42;96428.69;4900664;29;20256;-74
2023/03/12 09:06:55;;;;;;;2.00;1.80;;;;;;;7.15;42.50;96422.66;4893295;29;20219;-75
2023/03/12 09:09:22;;;;;;;1.80;1.33;;;;;;;7.25;43.13;96426.50;4892738;29;20256;-80
2023/03/12 09:11:49;;;;;;;2.50;1.40;;;;;;;7.32;42.62;96415.03;4894566;29;20200;-76
2023/03/12 09:14:16;;;;;;;2.43;1.87;;;;;;;7.39;41.77;96412.13;4911493;29;20497;-77
2023/03/12 09:17:03;;;;;;;2.43;2.13;;;;;;;7.18;42.20;96389.03;4911674;29;20266;-72
2023/03/12 09:19:30;;;;;;;2.17;2.00;;;;;;;7.41;42.78;96437.81;4911973;29;20871;-74
2023/03/12 09:21:57;;;;;;;5.03;1.90;;;;;;;7.60;42.02;96404.38;4911135;29;20222;-79
2023/03/12 09:24:25;;;;;;;2.57;1.87;;;;;;;7.73;41.12;96406.31;4912496;29;20206;-77
2023/03/12 09:26:52;;;;;;;3.00;2.10;;;;;;;7.67;41.44;96410.91;4909603;29;20198;-77
2023/03/12 09:29:19;;;;;;;2.60;2.00;;;;;;;7.88;42.08;96418.53;4911488;29;20288;-78
2023/03/12 09:31:46;;;;;;;2.17;1.97;;;;;;;7.85;41.14;96416.06;4891267;29;20585;-77
2023/03/12 09:34:13;;;;;;;2.13;1.67;;;;;;;7.86;42.10;96422.91;4874402;29;20192;-78
2023/03/12 09:36:40;;;;;;;1.97;1.77;;;;;;;7.66;41.88;96417.81;4874933;29;20237;-77
2023/03/12 09:39:07;;;;;;;2.47;2.10;;;;;;;7.68;42.58;96426.31;4891335;29;20234;-75
2023/03/12 09:41:38;;;;;;;2.60;2.00;;;;;;;7.64;42.33;96435.09;4892405;29;20188;-75
2023/03/12 09:44:19;;;;;;;3.87;2.40;;;;;;;7.64;41.94;96426.53;4891214;29;20191;-75
2023/03/12 09:46:52;;;;;;;3.57;1.97;;;;;;;7.70;41.53;96431.41;4891849;29;20281;-78
2023/03/12 09:49:33;;;;;;;2.33;1.70;;;;;;;7.90;40.72;96413.28;4891630;29;20223;-74
2023/03/12 09:52:06;;;;;;;2.17;1.90;;;;;;;8.01;41.36;96453.19;4891534;29;20235;-76
2023/03/12 09:55:03;;;;;;;2.23;1.67;;;;;;;7.84;41.23;96442.78;4892283;29;20226;-77
2023/03/12 09:57:30;;;;;;;1.90;1.70;;;;;;;7.76;41.47;96431.97;4900695;29;20202;-75
2023/03/12 09:59:58;;;;;;;2.70;1.93;;;;;;;7.64;41.94;96441.97;4910677;29;20717;-72
2023/03/12 10:02:26;;;;;;;4.83;2.17;;;;;;;8.06;42.08;96460.69;4878047;29;20254;-77
2023/03/12 10:05:08;;;;;;;4.10;2.80;;;;;;;8.16;41.49;96460.19;4910526;29;20237;-77
2023/03/12 10:07:45;;;;;;;3.03;2.27;;;;;;;8.05;41.47;96441.81;4910986;29;20215;-77
2023/03/12 10:10:12;;;;;;;3.07;2.13;;;;;;;8.33;40.94;96456.88;4898507;29;20203;-80
2023/03/12 10:13:05;;;;;;;3.37;2.20;;;;;;;8.25;40.70;96446.09;4896503;29;20235;-78
2023/03/12 10:16:17;;;;;;;1.80;1.70;;;;;;;8.34;40.48;96458.56;4873386;29;20710;-77
2023/03/12 10:18:47;;;;;;;2.10;1.80;;;;;;;8.69;40.58;96459.50;4875394;29;20214;-74
2023/03/12 10:21:33;;;;;;;2.40;1.80;;;;;;;8.56;40.45;96451.50;4876529;29;20208;-79
2023/03/12 10:24:23;;;;;;;2.90;2.27;;;;;;;8.76;39.93;96451.38;4890185;29;20587;-79
2023/03/12 10:26:55;;;;;;;2.80;1.70;;;;;;;8.78;39.04;96462.47;4868661;29;20753;-76
2023/03/12 10:29:38;;;;;;;2.50;1.63;;;;;;;8.59;39.69;96460.84;4889450;29;20239;-76
2023/03/12 10:32:31;;;;;;;4.47;2.10;;;;;;;8.59;40.54;96450.50;4902468;29;20205;-78
2023/03/12 10:35:11;;;;;;;2.40;2.00;;;;;;;8.73;40.34;96456.69;4900022;29;20294;-80
2023/03/12 10:37:53;;;;;;;2.57;2.00;;;;;;;8.65;40.35;96455.38;4865037;29;20219;-79
2023/03/12 10:40:26;;;;;;;2.33;1.80;;;;;;;8.54;40.84;96467.94;4880198;29;20284;-79
2023/03/12 10:42:53;;;;;;;3.73;2.73;;;;;;;8.70;40.55;96451.66;4895497;29;20683;-76
2023/03/12 10:45:33;;;;;;;2.00;1.80;;;;;;;8.82;40.33;96463.97;4894999;29;20297;-80
2023/03/12 10:48:10;;;;;;;2.30;2.10;;;;;;;9.03;39.98;96475.84;4862631;29;20202;-82
2023/03/12 10:50:39;;;;;;;2.67;1.90;;;;;;;9.06;39.15;96474.88;4879798;29;20273;-82
2023/03/12 10:53:22;;;;;;;3.30;1.90;;;;;;;8.63;40.37;96463.22;4894706;29;20195;-79
2023/03/12 10:56:18;;;;;;;4.03;2.20;;;;;;;8.87;40.02;96476.69;4895770;29;20212;-75
2023/03/12 10:58:51;;;;;;;2.67;2.13;;;;;;;8.64;40.49;96458.84;4895620;29;20234;-76
2023/03/12 11:01:26;;;;;;;2.93;2.37;;;;;;;8.87;40.01;96481.84;4894477;29;20294;-75
2023/03/12 11:04:13;;;;;;;2.50;2.20;;;;;;;9.01;39.05;96476.84;4878304;29;20198;-74
2023/03/12 11:06:40;;;;;;;2.67;2.03;;;;;;;8.85;40.46;96468.16;4894299;29;20198;-77
2023/03/12 11:09:17;;;;;;;3.47;2.00;;;;;;;9.08;40.53;96470.47;4894481;29;20641;-78
2023/03/12 11:11:49;;;;;;;2.27;2.07;;;;;;;9.09;40.04;96451.47;4877984;29;20211;-79
2023/03/12 11:14:21;;;;;;;2.10;1.90;;;;;;;9.25;39.34;96462.75;4893929;29;20223;-82
2023/03/12 11:16:49;;;;;;;2.40;1.83;;;;;;;9.29;39.58;96474.59;4895430;29;20195;-78
2023/03/12 11:19:33;;;;;;;3.13;1.60;;;;;;;8.90;38.99;96479.13;4894810;29;20234;-75
2023/03/12 11:22:07;;;;;;;2.77;2.13;;;;;;;8.96;39.77;96466.72;4878226;29;20231;-79
2023/03/12 11:24:34;;;;;;;1.93;1.70;;;;;;;8.90;39.38;96461.03;4879235;29;20197;-80
2023/03/12 11:27:16;;;;;;;2.90;2.10;;;;;;;9.37;39.44;96463.88;4893747;29;20773;-76
2023/03/12 11:29:47;;;;;;;2.33;1.80;;;;;;;8.94;38.86;96467.75;4890494;29;20661;-74
2023/03/12 11:32:22;;;;;;;2.13;1.93;;;;;;;9.02;39.67;96470.78;4893626;29;20268;-80
2023/03/12 11:34:51;;;;;;;4.20;1.90;;;;;;;8.99;38.88;96478.66;4894014;29;20195;-74
2023/03/12 11:37:18;;;;;;;3.07;2.33;;;;;;;8.89;40.15;96474.84;4894464;29;20239;-79
2023/03/12 11:40:20;;;;;;;2.47;2.17;;;;;;;8.59;40.28;96482.31;4894854;29;20246;-81
2023/03/12 11:42:48;;;;;;;3.10;2.30;;;;;;;8.84;40.16;96482.00;4878218;29;20254;-76
2023/03/12 11:45:23;;;;;;;3.23;2.70;;;;;;;8.86;40.30;96482.75;4894616;29;20323;-74
2023/03/12 11:48:37;;;;;;;4.13;2.33;;;;;;;8.85;39.94;96475.91;4877890;29;20285;-75
2023/03/12 11:51:19;;;;;;;3.97;2.07;;;;;;;9.34;39.96;96493.28;4868053;29;20294;-82
2023/03/12 11:54:19;;;;;;;2.30;2.00;;;;;;;9.18;39.67;96484.59;4876912;29;20223;-78
2023/03/12 11:56:54;;;;;;;2.10;1.73;;;;;;;8.93;39.93;96481.53;4879442;29;20195;-82